sensor_id;sensor_type;location;lat;lon;timestamp;pressure;altitude;pressure_sealevel;temperature;humidity
63343;BME280;49465;57.664;39.686;2023-07-13T00:00:18;99102.75;;;16.57;59.40
63343;BME280;49465;57.664;39.686;2023-07-13T00:02:56;99098.47;;;16.48;59.33
63343;BME280;49465;57.664;39.686;2023-07-13T00:05:27;99099.97;;;16.59;59.35
63343;BME280;49465;57.664;39.686;2023-07-13T00:07:59;99087.06;;;16.39;59.84
63343;BME280;49465;57.664;39.686;2023-07-13T00:10:42;99102.78;;;16.49;59.72
63343;BME280;49465;57.664;39.686;2023-07-13T00:13:18;99106.88;;;16.60;59.06
63343;BME280;49465;57.664;39.686;2023-07-13T00:15:51;99106.72;;;16.53;59.29
63343;BME280;49465;57.664;39.686;2023-07-13T00:18:31;99098.78;;;16.53;59.77
63343;BME280;49465;57.664;39.686;2023-07-13T00:21:03;99102.59;;;16.51;59.51
63343;BME280;49465;57.664;39.686;2023-07-13T00:23:40;99105.56;;;16.56;59.57
63343;BME280;49465;57.664;39.686;2023-07-13T00:26:25;99101.13;;;16.56;59.31
63343;BME280;49465;57.664;39.686;2023-07-13T00:28:51;99098.53;;;17.20;56.54
63343;BME280;49465;57.664;39.686;2023-07-13T00:31:22;99096.81;;;16.47;59.17
63343;BME280;49465;57.664;39.686;2023-07-13T00:33:54;99096.97;;;16.37;59.88
63343;BME280;49465;57.664;39.686;2023-07-13T00:36:26;99101.78;;;16.34;59.83
63343;BME280;49465;57.664;39.686;2023-07-13T00:38:55;99101.63;;;16.35;60.00
63343;BME280;49465;57.664;39.686;2023-07-13T00:41:24;99100.78;;;16.35;59.88
63343;BME280;49465;57.664;39.686;2023-07-13T00:43:53;99110.03;;;16.47;60.06
63343;BME280;49465;57.664;39.686;2023-07-13T00:46:32;99100.94;;;16.50;59.92
63343;BME280;49465;57.664;39.686;2023-07-13T00:49:06;99106.41;;;16.56;59.27
63343;BME280;49465;57.664;39.686;2023-07-13T00:51:43;99105.91;;;16.53;59.88
63343;BME280;49465;57.664;39.686;2023-07-13T00:54:17;99114.84;;;16.52;59.61
63343;BME280;49465;57.664;39.686;2023-07-13T00:56:54;99105.75;;;16.54;59.46
63343;BME280;49465;57.664;39.686;2023-07-13T00:59:27;99105.25;;;16.43;60.28
63343;BME280;49465;57.664;39.686;2023-07-13T01:02:02;99107.41;;;16.55;59.70
63343;BME280;49465;57.664;39.686;2023-07-13T01:04:36;99107.72;;;16.60;59.86
63343;BME280;49465;57.664;39.686;2023-07-13T01:07:13;99114.00;;;16.59;59.73
63343;BME280;49465;57.664;39.686;2023-07-13T01:09:42;99100.28;;;16.39;59.94
63343;BME280;49465;57.664;39.686;2023-07-13T01:12:17;99106.06;;;16.59;59.69
63343;BME280;49465;57.664;39.686;2023-07-13T01:14:46;99100.63;;;16.53;59.95
63343;BME280;49465;57.664;39.686;2023-07-13T01:17:18;99099.13;;;16.42;59.86
63343;BME280;49465;57.664;39.686;2023-07-13T01:19:47;99093.16;;;16.40;59.77
63343;BME280;49465;57.664;39.686;2023-07-13T01:22:19;99091.38;;;16.49;59.58
63343;BME280;49465;57.664;39.686;2023-07-13T01:24:53;99097.16;;;16.60;59.43
63343;BME280;49465;57.664;39.686;2023-07-13T01:27:28;99098.13;;;16.68;59.43
63343;BME280;49465;57.664;39.686;2023-07-13T01:30:03;99084.06;;;16.67;58.91
63343;BME280;49465;57.664;39.686;2023-07-13T01:32:38;99088.56;;;16.58;59.93
63343;BME280;49465;57.664;39.686;2023-07-13T01:35:19;99092.50;;;16.46;60.53
63343;BME280;49465;57.664;39.686;2023-07-13T01:37:51;99095.66;;;16.50;60.41
63343;BME280;49465;57.664;39.686;2023-07-13T01:40:20;99093.84;;;16.34;60.61
63343;BME280;49465;57.664;39.686;2023-07-13T01:42:49;99092.84;;;16.43;60.39
63343;BME280;49465;57.664;39.686;2023-07-13T01:45:28;99091.38;;;16.49;60.30
63343;BME280;49465;57.664;39.686;2023-07-13T01:48:00;99081.94;;;16.38;60.36
63343;BME280;49465;57.664;39.686;2023-07-13T01:50:33;99085.59;;;16.37;60.80
63343;BME280;49465;57.664;39.686;2023-07-13T01:53:07;99086.06;;;16.49;60.51
63343;BME280;49465;57.664;39.686;2023-07-13T01:55:40;99084.56;;;16.46;60.72
63343;BME280;49465;57.664;39.686;2023-07-13T01:58:11;99082.94;;;16.45;60.47
63343;BME280;49465;57.664;39.686;2023-07-13T02:00:51;99076.63;;;16.71;59.45
63343;BME280;49465;57.664;39.686;2023-07-13T02:03:35;99073.16;;;16.54;60.14
63343;BME280;49465;57.664;39.686;2023-07-13T02:06:07;99089.03;;;16.54;60.23
63343;BME280;49465;57.664;39.686;2023-07-13T02:08:42;99081.09;;;16.54;59.83
63343;BME280;49465;57.664;39.686;2023-07-13T02:11:14;99071.69;;;16.43;60.24
63343;BME280;49465;57.664;39.686;2023-07-13T02:13:46;99074.19;;;16.45;60.84
63343;BME280;49465;57.664;39.686;2023-07-13T02:16:18;99071.34;;;16.38;60.24
63343;BME280;49465;57.664;39.686;2023-07-13T02:18:48;99081.09;;;16.46;60.65
63343;BME280;49465;57.664;39.686;2023-07-13T02:21:21;99075.31;;;16.26;60.95
63343;BME280;49465;57.664;39.686;2023-07-13T02:23:56;99070.69;;;16.44;60.62
63343;BME280;49465;57.664;39.686;2023-07-13T02:26:31;99069.88;;;16.35;61.20
63343;BME280;49465;57.664;39.686;2023-07-13T02:29:03;99070.19;;;16.40;60.59
63343;BME280;49465;57.664;39.686;2023-07-13T02:31:32;99072.16;;;16.38;60.67
63343;BME280;49465;57.664;39.686;2023-07-13T02:34:16;99072.50;;;16.68;60.13
63343;BME280;49465;57.664;39.686;2023-07-13T02:36:47;99064.09;;;16.56;60.25
63343;BME280;49465;57.664;39.686;2023-07-13T02:39:21;99066.91;;;16.47;60.38
63343;BME280;49465;57.664;39.686;2023-07-13T02:41:50;99066.56;;;16.41;60.28
63343;BME280;49465;57.664;39.686;2023-07-13T02:44:22;99067.56;;;16.49;60.41
63343;BME280;49465;57.664;39.686;2023-07-13T02:46:51;99061.78;;;16.37;60.68
63343;BME280;49465;57.664;39.686;2023-07-13T02:49:23;99074.00;;;16.54;60.03
63343;BME280;49465;57.664;39.686;2023-07-13T02:51:54;99072.19;;;16.47;60.71
63343;BME280;49465;57.664;39.686;2023-07-13T02:54:27;99062.75;;;16.52;60.27
63343;BME280;49465;57.664;39.686;2023-07-13T02:56:59;99065.38;;;16.69;59.43
63343;BME280;49465;57.664;39.686;2023-07-13T02:59:30;99061.44;;;16.56;60.05
63343;BME280;49465;57.664;39.686;2023-07-13T03:02:03;99054.16;;;16.58;60.73
63343;BME280;49465;57.664;39.686;2023-07-13T03:04:38;99069.69;;;16.61;60.37
63343;BME280;49465;57.664;39.686;2023-07-13T03:07:10;99063.72;;;16.59;60.17
63343;BME280;49465;57.664;39.686;2023-07-13T03:09:40;99063.56;;;16.61;59.77
63343;BME280;49465;57.664;39.686;2023-07-13T03:12:14;99066.84;;;16.71;59.85
63343;BME280;49465;57.664;39.686;2023-07-13T03:14:49;99070.66;;;16.52;60.58
63343;BME280;49465;57.664;39.686;2023-07-13T03:17:18;99063.44;;;16.54;60.04
63343;BME280;49465;57.664;39.686;2023-07-13T03:19:51;99070.88;;;16.51;60.56
63343;BME280;49465;57.664;39.686;2023-07-13T03:22:26;99065.06;;;16.55;60.30
63343;BME280;49465;57.664;39.686;2023-07-13T03:24:56;99061.91;;;16.60;59.94
63343;BME280;49465;57.664;39.686;2023-07-13T03:27:28;99066.88;;;16.63;60.28
63343;BME280;49465;57.664;39.686;2023-07-13T03:29:59;99067.22;;;16.68;59.82
63343;BME280;49465;57.664;39.686;2023-07-13T03:32:42;99078.44;;;16.62;60.20
63343;BME280;49465;57.664;39.686;2023-07-13T03:35:16;99067.88;;;16.46;60.28
63343;BME280;49465;57.664;39.686;2023-07-13T03:37:50;99072.19;;;16.55;60.50
63343;BME280;49465;57.664;39.686;2023-07-13T03:40:22;99076.63;;;16.46;60.84
63343;BME280;49465;57.664;39.686;2023-07-13T03:42:54;99071.34;;;16.54;60.53
63343;BME280;49465;57.664;39.686;2023-07-13T03:45:21;99066.72;;;16.32;60.69
63343;BME280;49465;57.664;39.686;2023-07-13T03:47:50;99065.75;;;16.41;60.56
63343;BME280;49465;57.664;39.686;2023-07-13T03:50:25;99067.38;;;16.42;60.84
63343;BME280;49465;57.664;39.686;2023-07-13T03:52:57;99065.56;;;16.51;60.46
63343;BME280;49465;57.664;39.686;2023-07-13T03:55:29;99056.31;;;16.55;60.46
63343;BME280;49465;57.664;39.686;2023-07-13T03:58:47;99062.59;;;16.46;60.97
63343;BME280;49465;57.664;39.686;2023-07-13T04:00:55;99060.41;;;16.66;59.73
63343;BME280;49465;57.664;39.686;2023-07-13T04:03:27;99062.94;;;16.43;60.78
63343;BME280;49465;57.664;39.686;2023-07-13T04:05:57;99056.97;;;16.57;60.00
63343;BME280;49465;57.664;39.686;2023-07-13T04:08:36;99061.09;;;16.59;60.35
63343;BME280;49465;57.664;39.686;2023-07-13T04:11:07;99056.13;;;16.40;61.10
63343;BME280;49465;57.664;39.686;2023-07-13T04:13:38;99050.34;;;16.53;60.25
63343;BME280;49465;57.664;39.686;2023-07-13T04:16:04;99050.03;;;16.23;61.46
63343;BME280;49465;57.664;39.686;2023-07-13T04:18:38;99061.13;;;16.43;60.75
63343;BME280;49465;57.664;39.686;2023-07-13T04:21:12;99051.69;;;16.49;61.31
63343;BME280;49465;57.664;39.686;2023-07-13T04:23:44;99053.50;;;16.40;61.30
63343;BME280;49465;57.664;39.686;2023-07-13T04:26:13;99053.47;;;16.48;60.99
63343;BME280;49465;57.664;39.686;2023-07-13T04:28:45;99052.84;;;16.54;60.84
63343;BME280;49465;57.664;39.686;2023-07-13T04:31:17;99053.16;;;16.59;60.44
63343;BME280;49465;57.664;39.686;2023-07-13T04:33:51;99066.53;;;16.74;60.29
63343;BME280;49465;57.664;39.686;2023-07-13T04:36:29;99062.91;;;16.59;60.69
63343;BME280;49465;57.664;39.686;2023-07-13T04:39:05;99061.53;;;16.79;60.55
63343;BME280;49465;57.664;39.686;2023-07-13T04:41:38;99065.03;;;16.80;60.24
63343;BME280;49465;57.664;39.686;2023-07-13T04:44:12;99061.72;;;16.78;60.07
63343;BME280;49465;57.664;39.686;2023-07-13T04:46:41;99072.66;;;16.75;60.06
63343;BME280;49465;57.664;39.686;2023-07-13T04:49:15;99073.97;;;16.87;59.90
63343;BME280;49465;57.664;39.686;2023-07-13T04:51:44;99073.47;;;16.92;59.82
63343;BME280;49465;57.664;39.686;2023-07-13T04:54:21;99079.88;;;17.14;59.44
63343;BME280;49465;57.664;39.686;2023-07-13T04:56:52;99077.53;;;17.11;59.56
63343;BME280;49465;57.664;39.686;2023-07-13T04:59:24;99071.59;;;17.09;59.18
63343;BME280;49465;57.664;39.686;2023-07-13T05:01:59;99072.75;;;17.14;59.29
63343;BME280;49465;57.664;39.686;2023-07-13T05:04:32;99072.41;;;17.17;59.50
63343;BME280;49465;57.664;39.686;2023-07-13T05:07:01;99062.09;;;17.31;58.99
63343;BME280;49465;57.664;39.686;2023-07-13T05:09:37;99058.56;;;17.47;58.67
63343;BME280;49465;57.664;39.686;2023-07-13T05:12:11;99050.94;;;17.44;58.69
63343;BME280;49465;57.664;39.686;2023-07-13T05:14:46;99047.19;;;17.30;59.01
63343;BME280;49465;57.664;39.686;2023-07-13T05:17:20;99045.25;;;17.55;58.73
63343;BME280;49465;57.664;39.686;2023-07-13T05:19:54;99044.00;;;17.43;59.06
63343;BME280;49465;57.664;39.686;2023-07-13T05:22:26;99040.59;;;17.57;58.48
63343;BME280;49465;57.664;39.686;2023-07-13T05:24:55;99048.28;;;17.44;58.64
63343;BME280;49465;57.664;39.686;2023-07-13T05:27:24;99046.88;;;17.64;57.92
63343;BME280;49465;57.664;39.686;2023-07-13T05:29:58;99048.50;;;17.65;58.46
63343;BME280;49465;57.664;39.686;2023-07-13T05:32:30;99038.72;;;17.66;58.01
63343;BME280;49465;57.664;39.686;2023-07-13T05:34:59;99040.22;;;17.68;57.99
63343;BME280;49465;57.664;39.686;2023-07-13T05:37:28;99037.03;;;17.73;57.88
63343;BME280;49465;57.664;39.686;2023-07-13T05:39:57;99044.94;;;17.81;57.36
63343;BME280;49465;57.664;39.686;2023-07-13T05:42:29;99036.47;;;18.09;57.05
63343;BME280;49465;57.664;39.686;2023-07-13T05:45:02;99044.63;;;18.07;57.05
63343;BME280;49465;57.664;39.686;2023-07-13T05:47:33;99048.59;;;18.03;57.05
63343;BME280;49465;57.664;39.686;2023-07-13T05:50:06;99045.03;;;18.19;56.49
63343;BME280;49465;57.664;39.686;2023-07-13T05:52:43;99048.91;;;18.31;56.52
63343;BME280;49465;57.664;39.686;2023-07-13T05:55:15;99052.06;;;18.27;56.50
63343;BME280;49465;57.664;39.686;2023-07-13T05:57:49;99046.19;;;18.40;56.26
63343;BME280;49465;57.664;39.686;2023-07-13T06:00:18;99047.00;;;18.40;56.08
63343;BME280;49465;57.664;39.686;2023-07-13T06:02:45;99041.84;;;18.24;55.97
63343;BME280;49465;57.664;39.686;2023-07-13T06:05:15;99058.56;;;18.47;55.37
63343;BME280;49465;57.664;39.686;2023-07-13T06:07:44;99057.59;;;18.40;55.60
63343;BME280;49465;57.664;39.686;2023-07-13T06:10:10;99054.66;;;18.73;55.14
63343;BME280;49465;57.664;39.686;2023-07-13T06:12:39;99055.34;;;18.52;55.02
63343;BME280;49465;57.664;39.686;2023-07-13T06:15:09;99055.38;;;18.67;54.98
63343;BME280;49465;57.664;39.686;2023-07-13T06:17:38;99052.00;;;18.73;55.07
63343;BME280;49465;57.664;39.686;2023-07-13T06:20:11;99044.59;;;18.68;55.27
63343;BME280;49465;57.664;39.686;2023-07-13T06:22:42;99045.97;;;18.79;54.87
63343;BME280;49465;57.664;39.686;2023-07-13T06:25:16;99037.75;;;18.74;54.94
63343;BME280;49465;57.664;39.686;2023-07-13T06:27:46;99037.44;;;18.69;54.56
63343;BME280;49465;57.664;39.686;2023-07-13T06:30:18;99038.34;;;18.61;55.00
63343;BME280;49465;57.664;39.686;2023-07-13T06:32:49;99046.28;;;18.84;54.53
63343;BME280;49465;57.664;39.686;2023-07-13T06:35:19;99040.78;;;18.86;54.33
63343;BME280;49465;57.664;39.686;2023-07-13T06:37:50;99045.44;;;18.99;54.17
63343;BME280;49465;57.664;39.686;2023-07-13T06:40:21;99041.81;;;19.00;54.36
63343;BME280;49465;57.664;39.686;2023-07-13T06:42:50;99040.25;;;19.05;53.68
63343;BME280;49465;57.664;39.686;2023-07-13T06:45:17;99037.84;;;19.10;53.69
63343;BME280;49465;57.664;39.686;2023-07-13T06:47:53;99042.13;;;19.26;53.44
63343;BME280;49465;57.664;39.686;2023-07-13T06:50:24;99036.84;;;19.11;53.50
63343;BME280;49465;57.664;39.686;2023-07-13T06:52:56;99037.50;;;19.13;53.26
63343;BME280;49465;57.664;39.686;2023-07-13T06:55:25;99042.78;;;19.28;52.76
63343;BME280;49465;57.664;39.686;2023-07-13T06:57:55;99048.56;;;19.17;52.93
63343;BME280;49465;57.664;39.686;2023-07-13T07:00:21;99043.91;;;19.19;52.73
63343;BME280;49465;57.664;39.686;2023-07-13T07:02:53;99052.22;;;19.31;53.01
63343;BME280;49465;57.664;39.686;2023-07-13T07:05:25;99052.28;;;19.38;52.87
63343;BME280;49465;57.664;39.686;2023-07-13T07:07:55;99049.19;;;19.34;52.52
63343;BME280;49465;57.664;39.686;2023-07-13T07:10:27;99052.22;;;19.31;52.55
63343;BME280;49465;57.664;39.686;2023-07-13T07:13:01;99042.53;;;19.08;52.42
63343;BME280;49465;57.664;39.686;2023-07-13T07:15:35;99051.38;;;19.30;52.38
63343;BME280;49465;57.664;39.686;2023-07-13T07:18:04;99054.88;;;19.16;52.60
63343;BME280;49465;57.664;39.686;2023-07-13T07:20:31;99045.09;;;19.02;52.21
63343;BME280;49465;57.664;39.686;2023-07-13T07:23:06;99057.47;;;19.09;52.64
63343;BME280;49465;57.664;39.686;2023-07-13T07:25:43;99064.03;;;19.28;52.07
63343;BME280;49465;57.664;39.686;2023-07-13T07:28:16;99069.66;;;19.04;52.78
63343;BME280;49465;57.664;39.686;2023-07-13T07:30:51;99060.66;;;19.05;52.70
63343;BME280;49465;57.664;39.686;2023-07-13T07:33:26;99066.41;;;19.38;52.18
63343;BME280;49465;57.664;39.686;2023-07-13T07:36:00;99065.06;;;19.27;52.29
63343;BME280;49465;57.664;39.686;2023-07-13T07:38:30;99062.41;;;19.27;52.32
63343;BME280;49465;57.664;39.686;2023-07-13T07:40:56;99065.31;;;19.32;52.04
63343;BME280;49465;57.664;39.686;2023-07-13T07:43:28;99064.38;;;19.55;51.92
63343;BME280;49465;57.664;39.686;2023-07-13T07:46:06;99063.41;;;19.78;51.14
63343;BME280;49465;57.664;39.686;2023-07-13T07:48:42;99067.94;;;19.62;52.27
63343;BME280;49465;57.664;39.686;2023-07-13T07:51:12;99068.59;;;19.49;51.54
63343;BME280;49465;57.664;39.686;2023-07-13T07:53:43;99070.47;;;19.70;51.45
63343;BME280;49465;57.664;39.686;2023-07-13T07:56:13;99066.06;;;19.78;51.34
63343;BME280;49465;57.664;39.686;2023-07-13T07:58:47;99065.81;;;19.72;51.32
63343;BME280;49465;57.664;39.686;2023-07-13T08:01:19;99066.97;;;19.85;51.03
63343;BME280;49465;57.664;39.686;2023-07-13T08:03:48;99068.19;;;19.82;51.06
63343;BME280;49465;57.664;39.686;2023-07-13T08:06:17;99076.84;;;19.91;51.14
63343;BME280;49465;57.664;39.686;2023-07-13T08:08:47;99068.44;;;19.87;51.11
63343;BME280;49465;57.664;39.686;2023-07-13T08:11:17;99072.28;;;19.85;51.13
63343;BME280;49465;57.664;39.686;2023-07-13T08:13:50;99071.34;;;19.92;51.01
63343;BME280;49465;57.664;39.686;2023-07-13T08:16:25;99072.13;;;20.08;51.00
63343;BME280;49465;57.664;39.686;2023-07-13T08:18:57;99077.50;;;19.93;51.27
63343;BME280;49465;57.664;39.686;2023-07-13T08:21:26;99068.53;;;19.79;51.08
63343;BME280;49465;57.664;39.686;2023-07-13T08:24:01;99073.06;;;19.79;51.37
63343;BME280;49465;57.664;39.686;2023-07-13T08:26:32;99073.31;;;19.84;51.86
63343;BME280;49465;57.664;39.686;2023-07-13T08:29:01;99068.81;;;19.69;52.38
63343;BME280;49465;57.664;39.686;2023-07-13T08:31:31;99068.31;;;19.59;52.53
63343;BME280;49465;57.664;39.686;2023-07-13T08:34:05;99076.53;;;19.79;52.47
63343;BME280;49465;57.664;39.686;2023-07-13T08:36:37;99078.09;;;19.73;52.20
63343;BME280;49465;57.664;39.686;2023-07-13T08:39:10;99070.97;;;19.74;52.96
63343;BME280;49465;57.664;39.686;2023-07-13T08:41:40;99079.75;;;19.74;52.95
63343;BME280;49465;57.664;39.686;2023-07-13T08:44:57;99076.19;;;20.04;52.57
63343;BME280;49465;57.664;39.686;2023-07-13T08:47:19;99079.63;;;19.83;53.14
63343;BME280;49465;57.664;39.686;2023-07-13T08:49:51;99080.53;;;19.90;52.48
63343;BME280;49465;57.664;39.686;2023-07-13T08:52:34;99085.63;;;20.06;53.16
63343;BME280;49465;57.664;39.686;2023-07-13T08:55:27;99090.56;;;20.09;53.03
63343;BME280;49465;57.664;39.686;2023-07-13T08:58:13;99092.06;;;19.97;53.09
63343;BME280;49465;57.664;39.686;2023-07-13T09:01:03;99092.97;;;20.04;52.48
63343;BME280;49465;57.664;39.686;2023-07-13T09:04:44;99089.28;;;19.84;52.61
63343;BME280;49465;57.664;39.686;2023-07-13T09:06:55;99096.88;;;19.87;52.47
63343;BME280;49465;57.664;39.686;2023-07-13T09:15:21;99097.16;;;19.77;53.10
63343;BME280;49465;57.664;39.686;2023-07-13T09:17:55;99098.53;;;19.58;53.61
63343;BME280;49465;57.664;39.686;2023-07-13T09:20:41;99097.63;;;19.81;53.19
63343;BME280;49465;57.664;39.686;2023-07-13T09:23:22;99105.59;;;19.66;53.16
63343;BME280;49465;57.664;39.686;2023-07-13T09:26:02;99104.31;;;19.77;53.24
63343;BME280;49465;57.664;39.686;2023-07-13T09:28:43;99097.31;;;19.90;53.08
63343;BME280;49465;57.664;39.686;2023-07-13T09:31:23;99098.63;;;19.80;53.64
63343;BME280;49465;57.664;39.686;2023-07-13T09:34:01;99102.69;;;19.97;53.27
63343;BME280;49465;57.664;39.686;2023-07-13T09:36:34;99105.25;;;19.84;53.53
63343;BME280;49465;57.664;39.686;2023-07-13T09:45:27;99114.03;;;19.84;53.50
63343;BME280;49465;57.664;39.686;2023-07-13T09:48:15;99121.09;;;20.13;53.10
63343;BME280;49465;57.664;39.686;2023-07-13T09:50:45;99110.44;;;19.92;53.28
63343;BME280;49465;57.664;39.686;2023-07-13T09:53:19;99109.75;;;20.05;53.22
63343;BME280;49465;57.664;39.686;2023-07-13T09:55:57;99116.84;;;19.98;52.71
63343;BME280;49465;57.664;39.686;2023-07-13T09:58:35;99108.28;;;20.02;53.65
63343;BME280;49465;57.664;39.686;2023-07-13T10:01:14;99114.88;;;20.06;53.26
63343;BME280;49465;57.664;39.686;2023-07-13T10:03:56;99112.69;;;20.31;53.40
63343;BME280;49465;57.664;39.686;2023-07-13T10:06:28;99110.00;;;20.10;53.97
63343;BME280;49465;57.664;39.686;2023-07-13T10:09:00;99109.44;;;20.14;53.43
63343;BME280;49465;57.664;39.686;2023-07-13T10:11:34;99119.84;;;20.31;53.53
63343;BME280;49465;57.664;39.686;2023-07-13T10:14:18;99115.16;;;20.54;52.31
63343;BME280;49465;57.664;39.686;2023-07-13T10:17:03;99117.19;;;20.74;51.58
63343;BME280;49465;57.664;39.686;2023-07-13T10:19:38;99115.91;;;20.70;52.72
63343;BME280;49465;57.664;39.686;2023-07-13T10:22:27;99118.41;;;21.06;51.42
63343;BME280;49465;57.664;39.686;2023-07-13T10:25:01;99123.56;;;20.80;51.54
63343;BME280;49465;57.664;39.686;2023-07-13T10:27:37;99127.78;;;20.96;51.66
63343;BME280;49465;57.664;39.686;2023-07-13T10:30:19;99132.72;;;20.99;51.31
63343;BME280;49465;57.664;39.686;2023-07-13T10:32:51;99125.66;;;20.84;51.84
63343;BME280;49465;57.664;39.686;2023-07-13T10:35:21;99125.78;;;20.76;51.76
63343;BME280;49465;57.664;39.686;2023-07-13T10:38:01;99131.34;;;20.81;51.58
63343;BME280;49465;57.664;39.686;2023-07-13T10:41:02;99140.34;;;21.08;51.20
63343;BME280;49465;57.664;39.686;2023-07-13T10:43:43;99135.63;;;21.04;51.35
63343;BME280;49465;57.664;39.686;2023-07-13T10:46:19;99138.78;;;20.86;51.86
63343;BME280;49465;57.664;39.686;2023-07-13T10:48:52;99138.47;;;20.74;51.96
63343;BME280;49465;57.664;39.686;2023-07-13T10:51:28;99137.63;;;20.73;51.94
63343;BME280;49465;57.664;39.686;2023-07-13T10:56:51;99142.75;;;20.53;52.47
63343;BME280;49465;57.664;39.686;2023-07-13T10:59:27;99136.03;;;20.58;52.74
63343;BME280;49465;57.664;39.686;2023-07-13T11:02:25;99144.66;;;20.81;52.27
63343;BME280;49465;57.664;39.686;2023-07-13T11:05:01;99149.44;;;20.43;52.51
63343;BME280;49465;57.664;39.686;2023-07-13T11:07:56;99146.41;;;20.67;52.17
63343;BME280;49465;57.664;39.686;2023-07-13T11:10:55;99137.41;;;20.68;52.31
63343;BME280;49465;57.664;39.686;2023-07-13T11:27:46;99152.75;;;20.66;53.25
63343;BME280;49465;57.664;39.686;2023-07-13T11:36:06;99152.59;;;20.53;53.21
63343;BME280;49465;57.664;39.686;2023-07-13T11:38:41;99149.16;;;20.16;53.57
63343;BME280;49465;57.664;39.686;2023-07-13T11:41:25;99155.84;;;20.27;52.80
63343;BME280;49465;57.664;39.686;2023-07-13T11:44:22;99164.56;;;20.42;52.55
63343;BME280;49465;57.664;39.686;2023-07-13T11:47:08;99158.06;;;20.08;53.11
63343;BME280;49465;57.664;39.686;2023-07-13T11:49:48;99161.31;;;20.04;53.05
63343;BME280;49465;57.664;39.686;2023-07-13T11:52:24;99168.94;;;19.92;53.36
63343;BME280;49465;57.664;39.686;2023-07-13T11:55:05;99164.84;;;20.11;52.60
63343;BME280;49465;57.664;39.686;2023-07-13T11:57:57;99168.78;;;19.93;52.75
63343;BME280;49465;57.664;39.686;2023-07-13T12:00:33;99159.59;;;19.96;52.33
63343;BME280;49465;57.664;39.686;2023-07-13T12:03:06;99159.13;;;19.92;52.75
63343;BME280;49465;57.664;39.686;2023-07-13T12:05:32;99165.53;;;19.98;52.20
63343;BME280;49465;57.664;39.686;2023-07-13T12:08:15;99174.06;;;20.30;51.80
63343;BME280;49465;57.664;39.686;2023-07-13T12:11:05;99167.50;;;20.47;51.63
63343;BME280;49465;57.664;39.686;2023-07-13T12:13:44;99174.34;;;20.35;51.25
63343;BME280;49465;57.664;39.686;2023-07-13T12:16:22;99178.63;;;20.14;51.71
63343;BME280;49465;57.664;39.686;2023-07-13T12:18:57;99183.81;;;20.23;51.66
63343;BME280;49465;57.664;39.686;2023-07-13T12:21:33;99188.78;;;20.47;51.46
63343;BME280;49465;57.664;39.686;2023-07-13T12:24:13;99179.78;;;20.27;51.30
63343;BME280;49465;57.664;39.686;2023-07-13T12:26:54;99182.88;;;20.30;51.81
63343;BME280;49465;57.664;39.686;2023-07-13T12:29:21;99180.13;;;20.02;51.92
63343;BME280;49465;57.664;39.686;2023-07-13T12:31:54;99192.66;;;20.08;52.73
63343;BME280;49465;57.664;39.686;2023-07-13T12:34:33;99185.91;;;20.06;52.05
63343;BME280;49465;57.664;39.686;2023-07-13T12:37:18;99179.94;;;19.89;52.47
63343;BME280;49465;57.664;39.686;2023-07-13T12:39:59;99184.38;;;19.82;52.50
63343;BME280;49465;57.664;39.686;2023-07-13T12:42:33;99184.09;;;19.77;52.74
63343;BME280;49465;57.664;39.686;2023-07-13T12:47:48;99184.97;;;19.99;52.39
63343;BME280;49465;57.664;39.686;2023-07-13T12:50:30;99192.97;;;19.99;52.74
63343;BME280;49465;57.664;39.686;2023-07-13T12:53:15;99186.81;;;19.98;52.62
63343;BME280;49465;57.664;39.686;2023-07-13T12:55:57;99192.31;;;19.97;52.72
63343;BME280;49465;57.664;39.686;2023-07-13T12:58:32;99193.72;;;19.78;53.44
63343;BME280;49465;57.664;39.686;2023-07-13T13:01:05;99186.72;;;19.62;53.09
63343;BME280;49465;57.664;39.686;2023-07-13T13:03:39;99190.06;;;19.79;53.36
63343;BME280;49465;57.664;39.686;2023-07-13T13:08:55;99185.09;;;19.75;53.53
63343;BME280;49465;57.664;39.686;2023-07-13T13:11:31;99176.75;;;19.79;53.31
63343;BME280;49465;57.664;39.686;2023-07-13T13:14:01;99180.94;;;19.58;53.41
63343;BME280;49465;57.664;39.686;2023-07-13T13:16:31;99171.34;;;19.57;53.70
63343;BME280;49465;57.664;39.686;2023-07-13T13:19:21;99175.00;;;19.71;53.97
63343;BME280;49465;57.664;39.686;2023-07-13T13:22:01;99179.88;;;19.82;53.25
63343;BME280;49465;57.664;39.686;2023-07-13T13:24:35;99175.38;;;19.83;53.59
63343;BME280;49465;57.664;39.686;2023-07-13T13:27:13;99184.09;;;19.77;53.78
63343;BME280;49465;57.664;39.686;2023-07-13T13:29:47;99172.91;;;19.81;53.65
63343;BME280;49465;57.664;39.686;2023-07-13T13:32:16;99181.50;;;19.83;53.85
63343;BME280;49465;57.664;39.686;2023-07-13T13:34:42;99181.34;;;19.85;53.80
63343;BME280;49465;57.664;39.686;2023-07-13T13:37:22;99185.19;;;20.19;53.09
63343;BME280;49465;57.664;39.686;2023-07-13T13:39:50;99185.78;;;19.99;53.70
63343;BME280;49465;57.664;39.686;2023-07-13T13:42:20;99186.44;;;20.01;53.73
63343;BME280;49465;57.664;39.686;2023-07-13T13:44:50;99184.22;;;20.05;53.49
63343;BME280;49465;57.664;39.686;2023-07-13T13:47:38;99189.59;;;20.48;52.46
63343;BME280;49465;57.664;39.686;2023-07-13T13:50:19;99189.72;;;20.40;52.44
63343;BME280;49465;57.664;39.686;2023-07-13T13:52:46;99178.53;;;20.08;52.79
63343;BME280;49465;57.664;39.686;2023-07-13T13:55:17;99187.88;;;20.19;53.36
63343;BME280;49465;57.664;39.686;2023-07-13T13:57:50;99179.31;;;20.02;53.38
63343;BME280;49465;57.664;39.686;2023-07-13T14:00:20;99179.59;;;19.92;53.85
63343;BME280;49465;57.664;39.686;2023-07-13T14:02:48;99177.56;;;19.94;53.55
63343;BME280;49465;57.664;39.686;2023-07-13T14:05:20;99176.53;;;19.95;53.64
63343;BME280;49465;57.664;39.686;2023-07-13T14:07:47;99171.09;;;19.82;53.41